createdAt,value
2018-06-12T00:00:41.837Z,16.42
2018-06-12T00:03:10.394Z,16.40
2018-06-12T00:05:38.934Z,16.35
2018-06-12T00:08:07.498Z,16.30
2018-06-12T00:10:36.037Z,16.27
2018-06-12T00:13:04.606Z,16.32
2018-06-12T00:15:33.149Z,16.32
2018-06-12T00:18:05.477Z,16.27
2018-06-12T00:20:34.018Z,16.19
2018-06-12T00:23:02.554Z,16.15
2018-06-12T00:25:31.129Z,16.17
2018-06-12T00:27:59.682Z,16.22
2018-06-12T00:30:29.204Z,16.18
2018-06-12T00:32:57.776Z,16.17
2018-06-12T00:35:26.316Z,16.20
2018-06-12T00:37:54.875Z,16.18
2018-06-12T00:40:25.399Z,16.13
2018-06-12T00:42:53.979Z,16.11
2018-06-12T00:45:22.512Z,16.06
2018-06-12T00:47:51.051Z,16.03
2018-06-12T00:50:19.584Z,16.00
2018-06-12T00:52:48.124Z,16.01
2018-06-12T00:55:16.693Z,16.04
2018-06-12T00:57:45.256Z,16.03
2018-06-12T01:00:13.824Z,16.02
2018-06-12T01:02:42.364Z,16.03
2018-06-12T01:05:10.912Z,16.07
2018-06-12T01:07:39.471Z,16.14
2018-06-12T01:10:08.014Z,16.19
2018-06-12T01:12:36.558Z,16.24
2018-06-12T01:15:05.111Z,16.26
2018-06-12T01:17:34.550Z,16.28
2018-06-12T01:20:03.093Z,16.30
2018-06-12T01:22:31.639Z,16.28
2018-06-12T01:25:00.200Z,16.31
2018-06-12T01:27:28.742Z,16.25
2018-06-12T01:29:57.346Z,16.15
2018-06-12T01:32:27.827Z,16.07
2018-06-12T01:34:57.315Z,15.92
2018-06-12T01:37:29.478Z,15.84
2018-06-12T01:39:58.037Z,15.77
2018-06-12T01:42:26.575Z,15.66
2018-06-12T01:44:55.114Z,15.59
2018-06-12T01:47:23.667Z,15.58
2018-06-12T01:49:52.203Z,15.50
2018-06-12T01:52:30.163Z,15.49
2018-06-12T01:55:00.653Z,15.44
2018-06-12T01:57:29.180Z,15.43
2018-06-12T01:59:57.732Z,15.43
2018-06-12T02:02:26.276Z,15.39
2018-06-12T02:04:58.116Z,15.30
2018-06-12T02:07:26.658Z,15.25
2018-06-12T02:09:55.205Z,15.23
2018-06-12T02:14:09.430Z,15.53
2018-06-12T02:16:38.497Z,15.71
2018-06-12T02:19:07.558Z,15.81
2018-06-12T02:21:36.616Z,15.99
2018-06-12T02:24:05.700Z,16.21
2018-06-12T02:26:34.764Z,16.28
2018-06-12T02:31:39.625Z,16.55
2018-06-12T02:36:44.465Z,16.59
2018-06-12T02:39:13.533Z,16.37
2018-06-12T02:41:42.581Z,16.24
2018-06-12T02:44:11.732Z,16.24
2018-06-12T02:46:40.812Z,16.43
2018-06-12T02:49:09.889Z,16.54
2018-06-12T02:51:38.961Z,16.59
2018-06-12T02:54:08.029Z,16.66
2018-06-12T02:56:37.100Z,16.74
2018-06-12T02:59:06.159Z,16.77
2018-06-12T03:01:35.238Z,16.83
2018-06-12T03:06:40.023Z,16.93
2018-06-12T03:09:09.102Z,16.97
2018-06-12T03:11:38.165Z,16.95
2018-06-12T03:16:42.953Z,16.94
2018-06-12T03:19:12.034Z,17.03
2018-06-12T03:21:41.097Z,16.95
2018-06-12T03:24:10.166Z,17.09
2018-06-12T03:26:39.242Z,17.18
2018-06-12T03:29:10.273Z,17.21
2018-06-12T03:31:39.349Z,17.24
2018-06-12T03:34:08.555Z,17.17
2018-06-12T03:36:37.625Z,17.18
2018-06-12T03:39:06.726Z,17.15
2018-06-12T03:41:35.803Z,17.28
2018-06-12T03:44:05.822Z,17.29
2018-06-12T03:46:34.930Z,17.40
2018-06-12T03:49:05.951Z,17.43
2018-06-12T03:51:35.012Z,17.45
2018-06-12T03:54:04.078Z,17.44
2018-06-12T03:56:33.155Z,17.47
2018-06-12T03:59:02.270Z,17.54
2018-06-12T04:01:31.346Z,17.52
2018-06-12T04:04:02.585Z,17.56
2018-06-12T04:06:32.608Z,17.62
2018-06-12T04:09:01.679Z,17.69
2018-06-12T04:11:30.735Z,17.66
2018-06-12T04:13:59.848Z,17.72
2018-06-12T04:16:28.941Z,17.76
2018-06-12T04:24:09.120Z,18.01
2018-06-12T04:26:38.210Z,18.06
2018-06-12T04:29:07.278Z,18.05
2018-06-12T04:31:37.311Z,17.99
2018-06-12T04:34:06.408Z,17.90
2018-06-12T04:39:11.797Z,18.02
2018-06-12T04:41:40.872Z,18.03
2018-06-12T04:44:09.952Z,17.92
2018-06-12T04:46:46.341Z,17.84
2018-06-12T04:49:15.478Z,17.90
2018-06-12T04:51:49.984Z,17.98
2018-06-12T04:54:23.011Z,18.02
2018-06-12T04:56:52.074Z,17.98
2018-06-12T04:59:26.477Z,18.24
2018-06-12T05:01:55.539Z,18.27
2018-06-12T05:04:24.593Z,18.40
2018-06-12T05:09:29.451Z,18.54
2018-06-12T05:11:58.516Z,18.45
2018-06-12T05:14:28.539Z,18.41
2018-06-12T05:16:58.524Z,18.37
2018-06-12T05:19:27.592Z,18.21
2018-06-12T05:21:56.653Z,18.26
2018-06-12T05:24:25.709Z,18.61
2018-06-12T05:26:54.775Z,18.92
2018-06-12T05:29:23.852Z,18.96
2018-06-12T05:31:52.923Z,18.91
2018-06-12T05:34:21.987Z,18.67
2018-06-12T05:36:51.058Z,18.35
2018-06-12T05:39:21.089Z,18.22
2018-06-12T05:41:51.072Z,18.21
2018-06-12T05:44:20.154Z,18.32
2018-06-12T05:46:49.241Z,18.36
2018-06-12T05:51:54.071Z,18.68
2018-06-12T05:59:36.734Z,19.82
2018-06-12T06:02:05.800Z,19.89
2018-06-12T06:04:34.856Z,20.04
2018-06-12T06:07:04.057Z,20.27
2018-06-12T06:09:33.125Z,20.58
2018-06-12T06:12:02.185Z,20.90
2018-06-12T06:14:31.252Z,21.33
2018-06-12T06:17:00.329Z,21.42
2018-06-12T06:19:29.395Z,21.24
2018-06-12T06:21:58.482Z,20.97
2018-06-12T06:24:28.600Z,20.67
2018-06-12T06:26:58.663Z,20.62
2018-06-12T06:29:28.256Z,20.94
2018-06-12T06:31:57.577Z,21.02
2018-06-12T06:34:28.485Z,20.64
2018-06-12T06:36:57.767Z,20.45
2018-06-12T06:39:28.104Z,20.57
2018-06-12T06:41:57.477Z,20.71
2018-06-12T06:47:04.464Z,20.76
2018-06-12T06:49:35.513Z,20.71
2018-06-12T06:52:05.775Z,20.45
2018-06-12T06:54:36.542Z,20.41
2018-06-12T06:57:05.941Z,20.03
2018-06-12T07:02:08.342Z,20.70
2018-06-12T07:04:38.113Z,20.88
2018-06-12T07:07:07.641Z,21.66
2018-06-12T07:09:36.891Z,21.66
2018-06-12T07:12:06.486Z,22.29
2018-06-12T07:14:35.551Z,22.46
2018-06-12T07:17:04.637Z,22.16
2018-06-12T07:19:33.785Z,22.72
2018-06-12T07:22:03.038Z,23.31
2018-06-12T07:24:35.607Z,23.63
2018-06-12T07:27:04.723Z,22.84
2018-06-12T07:29:33.805Z,22.60
2018-06-12T07:32:02.850Z,22.59
2018-06-12T07:34:31.914Z,22.66
2018-06-12T07:37:00.983Z,22.73
2018-06-12T07:39:30.038Z,22.60
2018-06-12T07:41:59.106Z,22.14
2018-06-12T07:47:04.476Z,22.89
2018-06-12T07:49:33.536Z,23.23
2018-06-12T07:52:02.593Z,23.55
2018-06-12T07:54:31.651Z,23.25
2018-06-12T07:57:00.721Z,23.41
2018-06-12T08:02:05.525Z,23.22
2018-06-12T08:09:50.595Z,23.11
2018-06-12T08:12:19.688Z,23.38
2018-06-12T08:14:48.746Z,23.71
2018-06-12T08:17:18.813Z,23.51
2018-06-12T08:22:27.076Z,23.73
2018-06-12T08:24:56.133Z,23.56
2018-06-12T08:27:28.933Z,23.48
2018-06-12T08:35:09.440Z,24.50
2018-06-12T08:37:38.496Z,24.59
2018-06-12T08:40:07.554Z,24.85
2018-06-12T08:42:36.614Z,24.88
2018-06-12T08:45:11.210Z,25.25
2018-06-12T08:47:45.128Z,25.61
2018-06-12T08:50:14.186Z,26.11
2018-06-12T08:52:43.268Z,26.25
2018-06-12T08:55:12.322Z,26.34
2018-06-12T09:00:17.202Z,25.33
2018-06-12T09:02:46.782Z,25.42
2018-06-12T09:05:15.817Z,25.36
2018-06-12T09:07:44.885Z,25.51
2018-06-12T09:10:13.998Z,25.57
2018-06-12T09:12:43.066Z,25.49
2018-06-12T09:15:12.124Z,25.58
2018-06-12T09:17:41.190Z,25.75
2018-06-12T09:20:10.232Z,25.55
2018-06-12T09:22:39.274Z,24.86
2018-06-12T09:25:08.373Z,25.19
2018-06-12T09:30:13.146Z,26.34
2018-06-12T09:35:17.978Z,26.33
2018-06-12T09:40:23.763Z,29.75
2018-06-12T09:42:52.872Z,29.29
2018-06-12T09:45:21.921Z,29.06
2018-06-12T09:47:51.997Z,29.65
2018-06-12T09:50:21.046Z,30.13
2018-06-12T09:52:50.094Z,30.16
2018-06-12T09:55:19.154Z,31.54
2018-06-12T09:57:48.246Z,33.35
2018-06-12T10:02:56.701Z,33.25
2018-06-12T10:05:25.766Z,35.19
2018-06-12T10:10:31.695Z,36.73
2018-06-12T10:15:37.573Z,34.29
2018-06-12T10:18:06.626Z,35.02
2018-06-12T10:20:35.665Z,34.47
2018-06-12T10:23:06.622Z,35.35
2018-06-12T10:28:11.472Z,36.03
2018-06-12T10:30:40.529Z,37.20
2018-06-12T10:33:09.577Z,36.67
2018-06-12T10:35:38.634Z,35.69
2018-06-12T10:38:07.693Z,33.60
2018-06-12T10:40:36.737Z,33.75
2018-06-12T10:43:06.205Z,33.33
2018-06-12T10:45:35.272Z,33.02
2018-06-12T10:50:40.126Z,30.58
2018-06-12T10:55:45.062Z,35.45
2018-06-12T10:58:14.093Z,35.18
2018-06-12T11:00:43.163Z,36.03
2018-06-12T11:03:12.214Z,36.65
2018-06-12T11:05:41.277Z,35.03
2018-06-12T11:08:10.345Z,34.83
2018-06-12T11:10:39.396Z,36.20
2018-06-12T11:13:08.465Z,38.67
2018-06-12T11:15:37.507Z,39.90
2018-06-12T11:18:06.726Z,38.87
2018-06-12T11:20:35.878Z,38.08
2018-06-12T11:25:40.224Z,35.82
2018-06-12T11:28:09.329Z,36.95
2018-06-12T11:30:38.398Z,37.89
2018-06-12T11:33:08.445Z,39.18
2018-06-12T11:35:37.448Z,40.05
2018-06-12T11:38:10.386Z,39.27
2018-06-12T11:40:39.469Z,39.78
2018-06-12T11:43:08.515Z,40.60
2018-06-12T11:45:37.571Z,39.71
2018-06-12T11:50:43.452Z,40.56
2018-06-12T11:53:15.665Z,41.22
2018-06-12T11:55:44.738Z,42.28
2018-06-12T11:58:13.804Z,43.05
2018-06-12T12:00:42.880Z,43.01
2018-06-12T12:03:11.946Z,42.18
2018-06-12T12:05:41.034Z,41.66
2018-06-12T12:08:10.153Z,41.74
2018-06-12T12:10:39.543Z,41.85
2018-06-12T12:13:08.628Z,42.11
2018-06-12T12:15:37.675Z,40.60
2018-06-12T12:18:06.757Z,40.68
2018-06-12T12:20:35.802Z,41.96
2018-06-12T12:23:05.591Z,41.23
2018-06-12T12:25:34.654Z,39.61
2018-06-12T12:28:04.995Z,39.89
2018-06-12T12:33:09.931Z,42.10
2018-06-12T12:35:39.021Z,41.24
2018-06-12T12:38:08.082Z,39.91
2018-06-12T12:40:37.202Z,39.07
2018-06-12T12:43:07.078Z,36.71
2018-06-12T12:45:36.144Z,36.68
2018-06-12T12:48:05.971Z,34.49
2018-06-12T12:53:10.852Z,33.84
2018-06-12T12:55:39.911Z,33.63
2018-06-12T12:58:09.039Z,34.15
2018-06-12T13:00:40.042Z,34.81
2018-06-12T13:03:09.099Z,33.63
2018-06-12T13:08:15.476Z,34.22
2018-06-12T13:10:45.465Z,33.05
2018-06-12T13:13:14.556Z,33.47
2018-06-12T13:15:44.603Z,33.57
2018-06-12T13:18:13.662Z,33.29
2018-06-12T13:20:42.721Z,33.01
2018-06-12T13:23:11.854Z,32.41
2018-06-12T13:25:41.926Z,32.29
2018-06-12T13:28:11.062Z,31.14
2018-06-12T13:30:40.098Z,30.60
2018-06-12T13:33:09.156Z,30.30
2018-06-12T13:35:38.234Z,29.54
2018-06-12T13:40:43.070Z,29.25
2018-06-12T13:43:12.192Z,29.20
2018-06-12T13:45:41.272Z,27.69
2018-06-12T13:48:14.849Z,27.25
2018-06-12T13:50:48.130Z,27.13
2018-06-12T13:55:59.108Z,27.60
2018-06-12T13:58:28.259Z,27.66
2018-06-12T14:00:57.365Z,26.82
2018-06-12T14:03:26.438Z,26.95
2018-06-12T14:05:55.517Z,27.17
2018-06-12T14:08:24.596Z,27.08
2018-06-12T14:10:54.640Z,27.35
2018-06-12T14:13:23.688Z,27.09
2018-06-12T14:15:57.361Z,27.28
2018-06-12T14:18:26.693Z,27.14
2018-06-12T14:20:55.814Z,26.97
2018-06-12T14:23:24.869Z,26.77
2018-06-12T14:25:54.862Z,26.64
2018-06-12T14:28:23.941Z,26.71
2018-06-12T14:30:52.997Z,26.21
2018-06-12T14:33:22.060Z,25.96
2018-06-12T14:38:32.822Z,26.06
2018-06-12T14:43:37.640Z,25.78
2018-06-12T14:46:07.850Z,25.41
2018-06-12T14:48:36.969Z,24.85
2018-06-12T14:51:06.121Z,24.30
2018-06-12T14:53:35.193Z,23.44
2018-06-12T14:58:40.519Z,23.45
2018-06-12T15:01:11.703Z,23.25
2018-06-12T15:03:41.808Z,22.98
2018-06-12T15:06:10.853Z,22.54
2018-06-12T15:08:39.929Z,22.06
2018-06-12T15:13:44.758Z,22.13
2018-06-12T15:16:13.828Z,21.73
2018-06-12T15:18:42.882Z,21.76
2018-06-12T15:23:47.669Z,21.89
2018-06-12T15:26:24.547Z,21.60
2018-06-12T15:28:53.618Z,20.94
2018-06-12T15:31:22.682Z,20.05
2018-06-12T15:33:51.751Z,18.93
2018-06-12T15:38:56.675Z,17.89
2018-06-12T15:41:26.717Z,17.82
2018-06-12T15:43:55.806Z,17.50
2018-06-12T15:46:24.870Z,17.52
2018-06-12T15:48:53.917Z,17.51
2018-06-12T15:53:58.812Z,17.33
2018-06-12T15:56:27.876Z,17.22
2018-06-12T15:58:56.932Z,16.96
2018-06-12T16:01:25.566Z,16.86
2018-06-12T16:03:54.092Z,16.71
2018-06-12T16:06:22.632Z,16.72
2018-06-12T16:08:51.437Z,16.69
2018-06-12T16:11:20.052Z,16.44
2018-06-12T16:13:48.591Z,16.29
2018-06-12T16:16:17.133Z,16.11
2018-06-12T16:18:45.667Z,16.09
2018-06-12T16:21:14.204Z,16.03
2018-06-12T16:23:42.756Z,16.05
2018-06-12T16:26:11.318Z,16.02
2018-06-12T16:28:39.911Z,15.95
2018-06-12T16:31:08.463Z,15.94
2018-06-12T16:33:37.115Z,15.98
2018-06-12T16:36:05.686Z,15.89
2018-06-12T16:38:34.204Z,15.95
2018-06-12T16:41:02.763Z,16.02
2018-06-12T16:43:31.299Z,16.04
2018-06-12T16:45:59.843Z,16.04
2018-06-12T16:48:29.770Z,16.07
2018-06-12T16:50:58.295Z,16.04
2018-06-12T16:53:27.866Z,16.02
2018-06-12T16:55:56.403Z,16.06
2018-06-12T16:58:24.952Z,16.13
2018-06-12T17:00:53.532Z,16.07
2018-06-12T17:03:22.069Z,16.15
2018-06-12T17:05:53.663Z,16.27
2018-06-12T17:08:22.230Z,16.32
2018-06-12T17:10:50.762Z,16.35
2018-06-12T17:13:19.300Z,16.30
2018-06-12T17:15:47.837Z,16.23
2018-06-12T17:18:16.412Z,16.17
2018-06-12T17:20:44.958Z,16.23
2018-06-12T17:23:13.512Z,16.24
2018-06-12T17:25:42.112Z,16.17
2018-06-12T17:28:11.613Z,16.02
2018-06-12T17:30:40.240Z,15.89
2018-06-12T17:33:08.813Z,15.87
2018-06-12T17:35:37.404Z,15.81
2018-06-12T17:38:05.962Z,15.88
2018-06-12T17:40:34.490Z,15.97
2018-06-12T17:43:03.032Z,15.99
2018-06-12T17:45:31.617Z,15.95
2018-06-12T17:48:00.189Z,15.96
2018-06-12T17:50:31.350Z,15.90
2018-06-12T17:53:00.112Z,15.95
2018-06-12T17:55:28.805Z,15.93
2018-06-12T17:57:59.470Z,15.96
2018-06-12T18:00:28.031Z,16.06
2018-06-12T18:03:01.715Z,16.04
2018-06-12T18:05:30.482Z,16.09
2018-06-12T18:08:01.024Z,16.14
2018-06-12T18:10:30.601Z,16.16
2018-06-12T18:12:59.171Z,16.14
2018-06-12T18:15:28.114Z,16.15
2018-06-12T18:17:56.653Z,16.11
2018-06-12T18:20:26.352Z,16.09
2018-06-12T18:22:55.108Z,16.09
2018-06-12T18:25:23.652Z,16.08
2018-06-12T18:27:52.214Z,16.08
2018-06-12T18:30:21.895Z,16.09
2018-06-12T18:32:51.432Z,16.16
2018-06-12T18:35:20.115Z,16.13
2018-06-12T18:37:48.665Z,16.13
2018-06-12T18:40:17.206Z,16.04
2018-06-12T18:42:46.047Z,16.03
2018-06-12T18:45:14.631Z,15.94
2018-06-12T18:47:43.167Z,15.88
2018-06-12T18:50:11.768Z,15.91
2018-06-12T18:52:43.938Z,15.94
2018-06-12T18:55:12.500Z,15.93
2018-06-12T18:57:41.223Z,15.88
2018-06-12T19:00:09.788Z,15.83
2018-06-12T19:02:38.343Z,15.84
2018-06-12T19:05:07.876Z,15.82
2018-06-12T19:07:36.424Z,15.87
2018-06-12T19:10:06.000Z,15.81
2018-06-12T19:12:34.573Z,15.87
2018-06-12T19:15:03.137Z,15.87
2018-06-12T19:17:31.721Z,15.84
2018-06-12T19:20:10.442Z,15.79
2018-06-12T19:22:49.030Z,15.84
2018-06-12T19:25:26.646Z,15.77
2018-06-12T19:28:06.902Z,15.78
2018-06-12T19:30:44.756Z,15.79
2018-06-12T19:33:23.836Z,15.78
2018-06-12T19:36:01.638Z,15.81
2018-06-12T19:38:41.484Z,15.85
2018-06-12T19:41:22.135Z,15.83
2018-06-12T19:43:59.995Z,15.86
2018-06-12T19:46:29.002Z,15.94
2018-06-12T19:49:01.003Z,15.97
2018-06-12T19:51:29.947Z,15.87
2018-06-12T19:54:01.736Z,15.90
2018-06-12T19:56:30.999Z,15.96
2018-06-12T19:59:00.037Z,16.07
2018-06-12T20:01:28.732Z,16.11
2018-06-12T20:03:58.664Z,16.14
2018-06-12T20:06:27.336Z,16.17
2018-06-12T20:08:56.249Z,16.22
2018-06-12T20:11:25.172Z,16.24
2018-06-12T20:13:53.885Z,16.21
2018-06-12T20:16:23.000Z,16.24
2018-06-12T20:18:51.729Z,16.24
2018-06-12T20:21:20.354Z,16.26
2018-06-12T20:23:49.522Z,16.25
2018-06-12T20:26:18.364Z,16.26
2018-06-12T20:28:47.308Z,16.18
2018-06-12T20:31:16.106Z,16.15
2018-06-12T20:33:45.135Z,16.09
2018-06-12T20:36:13.764Z,16.08
2018-06-12T20:38:42.468Z,16.12
2018-06-12T20:41:11.478Z,16.10
2018-06-12T20:43:40.578Z,16.06
2018-06-12T20:46:10.595Z,16.05
2018-06-12T20:48:39.645Z,16.08
2018-06-12T20:51:08.985Z,16.03
2018-06-12T20:53:37.592Z,15.99
2018-06-12T20:56:08.184Z,15.90
2018-06-12T20:58:39.740Z,15.90
2018-06-12T21:01:11.602Z,15.90
2018-06-12T21:03:40.211Z,15.87
2018-06-12T21:06:08.812Z,15.87
2018-06-12T21:08:38.841Z,15.87
2018-06-12T21:11:07.639Z,15.92
2018-06-12T21:13:41.697Z,15.93
2018-06-12T21:16:10.199Z,15.93
2018-06-12T21:18:38.749Z,15.95
2018-06-12T21:21:07.312Z,15.93
2018-06-12T21:23:36.834Z,15.91
2018-06-12T21:26:05.366Z,15.89
2018-06-12T21:28:35.837Z,15.88
2018-06-12T21:31:04.352Z,15.87
2018-06-12T21:33:32.886Z,15.88
2018-06-12T21:36:03.752Z,15.87
2018-06-12T21:38:33.296Z,15.83
2018-06-12T21:41:01.829Z,15.84
2018-06-12T21:43:30.460Z,15.80
2018-06-12T21:45:58.963Z,15.81
2018-06-12T21:48:27.555Z,15.86
2018-06-12T21:50:57.031Z,15.92
2018-06-12T21:53:25.560Z,15.95
2018-06-12T21:55:54.101Z,16.01
2018-06-12T21:58:22.661Z,16.01
2018-06-12T22:00:51.220Z,16.05
2018-06-12T22:03:19.750Z,16.11
2018-06-12T22:05:51.572Z,16.13
2018-06-12T22:08:20.099Z,16.18
2018-06-12T22:10:48.645Z,16.23
2018-06-12T22:13:17.185Z,16.26
2018-06-12T22:15:45.722Z,16.25
2018-06-12T22:18:14.273Z,16.25
2018-06-12T22:20:43.784Z,16.29
2018-06-12T22:23:12.324Z,16.29
2018-06-12T22:25:40.863Z,16.22
2018-06-12T22:28:09.412Z,16.23
2018-06-12T22:30:38.960Z,16.28
2018-06-12T22:33:09.492Z,16.24
2018-06-12T22:35:38.024Z,16.24
2018-06-12T22:38:07.601Z,16.23
2018-06-12T22:40:36.135Z,16.26
2018-06-12T22:43:04.663Z,16.28
2018-06-12T22:45:33.255Z,16.25
2018-06-12T22:48:01.751Z,16.21
2018-06-12T22:50:30.288Z,16.15
2018-06-12T22:53:00.763Z,16.17
2018-06-12T22:55:29.310Z,16.20
2018-06-12T22:57:58.848Z,16.15
2018-06-12T23:00:27.380Z,16.05
2018-06-12T23:02:55.931Z,15.96
2018-06-12T23:05:24.485Z,16.00
2018-06-12T23:07:53.027Z,16.07
2018-06-12T23:10:21.605Z,16.00
2018-06-12T23:12:50.102Z,15.98
2018-06-12T23:15:18.631Z,15.96
2018-06-12T23:17:50.621Z,15.95
2018-06-12T23:23:15.989Z,16.01
2018-06-12T23:25:44.541Z,16.04
2018-06-12T23:28:13.076Z,16.07
2018-06-12T23:30:42.633Z,16.08
2018-06-12T23:33:11.176Z,16.02
2018-06-12T23:35:39.722Z,15.94
2018-06-12T23:38:08.316Z,15.94
2018-06-12T23:40:36.894Z,15.93
2018-06-12T23:43:05.514Z,15.89
2018-06-12T23:45:34.069Z,15.81
2018-06-12T23:48:04.613Z,15.78
2018-06-12T23:50:34.100Z,15.77
2018-06-12T23:53:02.648Z,15.73
2018-06-12T23:55:31.191Z,15.68
2018-06-12T23:57:59.716Z,15.64
